Time;durP1;ratioP1;P1;durP2;ratioP2;P2;SDS_P1;SDS_P2;PMS_P1;PMS_P2;Temp;Humidity;BMP_temperature;BMP_pressure;BME280_temperature;BME280_humidity;BME280_pressure;Samples;Min_cycle;Max_cycle;Signal;HPM_P1;HPM_P2
2023/10/28 00:00:34;;;;;;;9.50;2.90;;;;;;;19.48;54.57;97720.25;4960959;28;20053;-75
2023/10/28 00:02:59;;;;;;;10.48;2.85;;;;;;;19.53;54.31;97731.06;4994280;28;20375;-74
2023/10/28 00:05:25;;;;;;;11.60;3.13;;;;;;;19.52;54.37;97732.88;4976825;28;20062;-74
2023/10/28 00:07:50;;;;;;;10.77;2.72;;;;;;;19.50;54.38;97732.28;4976814;28;20367;-74
2023/10/28 00:10:18;;;;;;;9.80;3.35;;;;;;;19.52;54.48;97724.13;4976876;28;20124;-74
2023/10/28 00:12:43;;;;;;;11.52;2.70;;;;;;;19.50;54.38;97713.75;4960700;28;20386;-74
2023/10/28 00:15:09;;;;;;;10.98;2.55;;;;;;;19.50;54.45;97723.53;4994077;28;20088;-74
2023/10/28 00:17:36;;;;;;;7.47;2.50;;;;;;;19.51;54.42;97733.91;4976715;28;20061;-74
2023/10/28 00:20:05;;;;;;;10.38;2.95;;;;;;;19.50;54.37;97742.84;4976365;28;20043;-74
2023/10/28 00:22:33;;;;;;;8.55;3.20;;;;;;;19.49;54.47;97745.69;4977126;28;20517;-75
2023/10/28 00:24:58;;;;;;;;;;;;;;;19.50;54.46;97761.38;4961196;28;20080;-75
2023/10/28 00:27:24;;;;;;;7.38;2.97;;;;;;;19.43;54.57;97747.31;4976567;28;19922;-75
2023/10/28 00:29:52;;;;;;;11.57;2.70;;;;;;;19.42;54.41;97744.84;4976454;28;20030;-75
2023/10/28 00:32:22;;;;;;;9.73;2.60;;;;;;;19.44;54.54;97756.88;4976569;28;20478;-75
2023/10/28 00:34:48;;;;;;;10.93;2.67;;;;;;;19.41;54.55;97754.63;4976878;28;20029;-75
2023/10/28 00:37:14;;;;;;;12.95;2.60;;;;;;;19.42;54.49;97766.84;4960424;28;20038;-75
2023/10/28 00:39:39;;;;;;;12.43;2.47;;;;;;;19.43;54.51;97757.06;4960348;28;20038;-75
2023/10/28 00:42:07;;;;;;;8.07;2.47;;;;;;;19.42;54.46;97755.44;4993346;28;20551;-75
2023/10/28 00:44:32;;;;;;;8.27;2.70;;;;;;;19.40;54.23;97752.19;4976906;28;20577;-75
2023/10/28 00:46:58;;;;;;;9.55;2.75;;;;;;;19.40;54.50;97754.81;4976172;28;20360;-75
2023/10/28 00:49:24;;;;;;;16.00;2.95;;;;;;;19.34;54.52;97737.94;4960037;28;20073;-75
2023/10/28 00:51:49;;;;;;;9.07;2.50;;;;;;;19.36;54.49;97741.19;4959955;28;20482;-75
2023/10/28 00:54:15;;;;;;;10.60;2.45;;;;;;;19.34;54.33;97736.09;4975391;28;20038;-75
2023/10/28 00:56:40;;;;;;;11.30;2.63;;;;;;;19.32;54.50;97732.00;4975340;28;20046;-75
2023/10/28 00:59:06;;;;;;;10.35;2.22;;;;;;;19.34;54.36;97736.09;4959614;28;20061;-75
2023/10/28 01:01:32;;;;;;;7.60;2.17;;;;;;;19.36;53.88;97737.72;4960105;28;20050;-75
2023/10/28 01:03:57;;;;;;;12.43;2.45;;;;;;;19.34;54.31;97730.78;4959683;28;20053;-75
2023/10/28 01:06:22;;;;;;;8.95;2.33;;;;;;;19.34;54.41;97724.69;4975726;28;20030;-75
2023/10/28 01:08:48;;;;;;;10.40;2.63;;;;;;;19.32;54.37;97730.19;4993099;28;20068;-75
2023/10/28 01:11:14;;;;;;;13.20;2.42;;;;;;;19.31;54.46;97739.13;4958659;28;20053;-75
2023/10/28 01:13:40;;;;;;;10.45;2.83;;;;;;;19.29;54.46;97732.38;4975562;28;20034;-75
2023/10/28 01:16:08;;;;;;;9.02;2.55;;;;;;;19.29;54.62;97738.50;4959825;28;20034;-75
2023/10/28 01:18:34;;;;;;;11.10;2.13;;;;;;;19.29;54.29;97756.19;4959354;28;20046;-75
2023/10/28 01:21:18;;;;;;;7.70;2.20;;;;;;;19.27;54.25;97753.75;4960008;28;20129;-75
2023/10/28 01:23:43;;;;;;;10.70;2.33;;;;;;;19.27;54.29;97758.22;4959465;28;20040;-75
2023/10/28 01:26:09;;;;;;;8.57;2.42;;;;;;;19.26;54.26;97761.88;4944129;28;20022;-75
2023/10/28 01:28:35;;;;;;;11.60;3.60;;;;;;;19.27;54.19;97763.53;4959778;28;20145;-74
2023/10/28 01:31:01;;;;;;;11.95;2.72;;;;;;;19.26;54.06;97761.88;4942657;28;20034;-74
2023/10/28 01:33:27;;;;;;;4.78;2.35;;;;;;;19.28;54.15;97776.56;4975845;28;20037;-74
2023/10/28 01:35:53;;;;;;;8.07;2.42;;;;;;;19.27;54.13;97779.41;4975275;28;20034;-75
2023/10/28 01:38:18;;;;;;;5.38;1.90;;;;;;;19.22;54.07;97766.75;4992816;28;20498;-74
2023/10/28 01:40:44;;;;;;;11.63;2.63;;;;;;;19.19;53.94;97766.34;4959043;28;20420;-75
2023/10/28 01:43:11;;;;;;;7.47;1.92;;;;;;;19.20;53.85;97787.31;4943234;28;20057;-75
2023/10/28 01:45:37;;;;;;;9.20;2.35;;;;;;;19.22;53.87;97787.13;4944023;28;20169;-75
2023/10/28 01:48:03;;;;;;;10.70;2.25;;;;;;;19.20;54.09;97776.72;4975442;28;20147;-74
2023/10/28 01:50:29;;;;;;;8.10;2.13;;;;;;;19.15;53.82;97774.66;4992843;28;20022;-75
2023/10/28 01:52:54;;;;;;;7.93;1.98;;;;;;;19.18;53.95;97776.09;4943308;28;20046;-74
2023/10/28 01:55:20;;;;;;;7.65;1.95;;;;;;;19.14;53.91;97766.94;4959229;28;20413;-73
2023/10/28 01:57:45;;;;;;;7.65;2.10;;;;;;;19.15;53.87;97772.03;4992500;28;20030;-73
2023/10/28 02:00:15;;;;;;;7.05;2.10;;;;;;;19.14;53.98;97772.22;4959407;28;20449;-73
2023/10/28 02:02:41;;;;;;;5.93;1.92;;;;;;;19.10;53.87;97777.09;4975818;28;20449;-73
2023/10/28 02:05:08;;;;;;;12.68;2.25;;;;;;;19.10;54.04;97778.91;4975296;28;20497;-74
2023/10/28 02:07:34;;;;;;;4.53;2.00;;;;;;;19.07;54.07;97788.06;4942650;28;20129;-75
2023/10/28 02:10:00;;;;;;;6.25;2.10;;;;;;;19.07;53.94;97789.88;4959296;28;20040;-74
2023/10/28 02:12:25;;;;;;;9.98;2.17;;;;;;;19.03;53.99;97781.50;4958637;28;20049;-73
2023/10/28 02:14:51;;;;;;;10.75;3.03;;;;;;;19.06;53.84;97786.41;4975065;28;20454;-74
2023/10/28 02:17:17;;;;;;;6.38;2.13;;;;;;;19.03;53.84;97791.28;4958389;28;20602;-74
2023/10/28 02:19:43;;;;;;;12.60;2.38;;;;;;;19.05;53.81;97800.63;4975174;28;20034;-74
2023/10/28 02:22:10;;;;;;;10.98;1.90;;;;;;;19.04;53.90;97801.66;4974991;28;20129;-74
2023/10/28 02:24:36;;;;;;;7.35;2.10;;;;;;;19.02;53.85;97797.56;4992782;28;20027;-74
2023/10/28 02:27:02;;;;;;;13.35;2.20;;;;;;;18.99;53.78;97793.47;4958134;28;20078;-74
2023/10/28 02:29:27;;;;;;;5.88;1.85;;;;;;;18.93;53.87;97789.78;4974874;28;20031;-74
2023/10/28 02:31:53;;;;;;;14.68;2.40;;;;;;;18.95;54.08;97808.94;4942454;28;20413;-74
2023/10/28 02:34:18;;;;;;;9.63;2.22;;;;;;;18.94;53.93;97806.47;4958852;28;20030;-74
2023/10/28 02:36:43;;;;;;;6.47;2.33;;;;;;;18.90;54.16;97803.41;4975002;28;20525;-74
2023/10/28 02:39:12;;;;;;;8.80;1.88;;;;;;;18.89;54.08;97801.75;4992054;28;20027;-74
2023/10/28 02:41:38;;;;;;;5.82;1.55;;;;;;;18.89;53.90;97811.53;4960761;28;20121;-73
2023/10/28 02:44:04;;;;;;;8.57;1.77;;;;;;;18.89;54.13;97807.06;4962480;28;20033;-73
2023/10/28 02:46:30;;;;;;;5.05;1.73;;;;;;;18.90;54.03;97811.34;4977842;28;20038;-74
2023/10/28 02:48:55;;;;;;;4.45;1.67;;;;;;;18.86;53.90;97812.72;4995757;28;20027;-74
2023/10/28 02:51:21;;;;;;;10.55;1.90;;;;;;;18.86;54.00;97804.78;4946033;28;20049;-74
2023/10/28 02:53:47;;;;;;;4.18;1.50;;;;;;;18.86;54.04;97817.19;4995603;28;20031;-74
2023/10/28 02:56:12;;;;;;;5.10;1.77;;;;;;;18.84;53.92;97820.03;4978230;28;20030;-74
2023/10/28 02:58:39;;;;;;;7.20;2.10;;;;;;;18.86;54.04;97828.59;4995563;28;20113;-74
2023/10/28 03:01:11;;;;;;;11.27;2.03;;;;;;;18.85;54.07;97824.31;4977343;28;20038;-75
2023/10/28 03:03:38;;;;;;;6.63;1.60;;;;;;;18.83;53.88;97820.19;4961957;28;20034;-74
2023/10/28 03:06:03;;;;;;;7.53;2.05;;;;;;;18.83;53.85;97818.38;4961618;28;20462;-74
2023/10/28 03:08:29;;;;;;;6.20;1.60;;;;;;;18.79;53.87;97819.78;4978062;28;20034;-74
2023/10/28 03:10:54;;;;;;;5.13;1.50;;;;;;;18.80;53.87;97824.03;4961923;28;20081;-74
2023/10/28 03:13:21;;;;;;;9.25;1.50;;;;;;;18.77;54.12;97825.25;4995187;28;20413;-74
2023/10/28 03:15:46;;;;;;;7.10;1.80;;;;;;;18.76;54.07;97818.31;4961777;28;20114;-76
2023/10/28 03:18:14;;;;;;;8.43;1.65;;;;;;;18.75;54.08;97827.25;4995164;28;20113;-74
2023/10/28 03:20:40;;;;;;;6.88;1.55;;;;;;;18.73;53.99;97824.00;4961566;28;20038;-74
2023/10/28 03:23:05;;;;;;;5.85;2.10;;;;;;;18.71;54.20;97826.00;4978110;28;20053;-74
2023/10/28 03:25:31;;;;;;;7.68;1.80;;;;;;;18.69;54.11;97830.69;4977364;28;20516;-74
2023/10/28 03:28:00;;;;;;;4.47;1.55;;;;;;;18.67;54.27;97835.31;4961505;28;20052;-74
2023/10/28 03:30:26;;;;;;;9.30;2.28;;;;;;;18.66;54.13;97825.78;4994648;28;20541;-74
2023/10/28 03:32:51;;;;;;;5.97;1.73;;;;;;;18.61;54.16;97823.72;4977576;28;20117;-74
2023/10/28 03:35:17;;;;;;;10.27;2.33;;;;;;;18.61;54.21;97828.16;4977794;28;20022;-74
2023/10/28 03:37:44;;;;;;;6.15;1.75;;;;;;;18.62;54.24;97835.91;4977345;28;20101;-74
2023/10/28 03:40:10;;;;;;;4.75;1.90;;;;;;;18.61;54.26;97822.88;4977699;28;20023;-74
2023/10/28 03:42:36;;;;;;;6.38;1.65;;;;;;;18.58;54.27;97828.53;4977538;28;20068;-74
2023/10/28 03:45:08;;;;;;;4.53;1.80;;;;;;;18.57;54.19;97834.84;4961383;28;20474;-73
2023/10/28 03:47:34;;;;;;;6.22;1.70;;;;;;;18.56;54.38;97830.56;4978191;28;20045;-73
2023/10/28 03:49:59;;;;;;;7.07;1.50;;;;;;;18.50;54.47;97833.97;4961631;28;20030;-75
2023/10/28 03:52:25;;;;;;;6.60;1.90;;;;;;;18.52;54.31;97843.34;4960991;28;20070;-74
2023/10/28 03:54:51;;;;;;;6.10;1.50;;;;;;;18.51;54.39;97843.53;4961598;28;20038;-75
2023/10/28 03:57:17;;;;;;;4.95;2.13;;;;;;;18.48;54.50;97850.00;4977419;28;20034;-74
2023/10/28 03:59:45;;;;;;;7.65;1.80;;;;;;;18.43;54.45;97840.00;4960778;28;20073;-75
2023/10/28 04:02:10;;;;;;;;;;;;;;;18.46;54.59;97849.38;4962225;28;20033;-75
2023/10/28 04:04:36;;;;;;;9.02;2.00;;;;;;;18.41;54.60;97849.13;4976997;28;19913;-74
2023/10/28 04:07:01;;;;;;;5.28;1.60;;;;;;;18.40;54.66;97848.31;4960953;28;20088;-74
2023/10/28 04:09:27;;;;;;;11.77;1.73;;;;;;;18.35;54.69;97840.13;4977087;28;20496;-74
2023/10/28 04:11:52;;;;;;;11.65;1.80;;;;;;;18.37;54.60;97851.31;4960294;28;20051;-75
2023/10/28 04:14:18;;;;;;;4.85;1.42;;;;;;;18.35;54.75;97853.34;4961064;28;20195;-77
2023/10/28 04:16:43;;;;;;;4.85;1.70;;;;;;;18.33;54.54;97859.81;4944586;28;20051;-75
2023/10/28 04:19:09;;;;;;;11.13;1.73;;;;;;;18.32;54.65;97855.56;4994415;28;20437;-75
2023/10/28 04:21:35;;;;;;;9.63;1.80;;;;;;;18.29;54.74;97848.81;4960656;28;20034;-75
2023/10/28 04:24:01;;;;;;;7.05;1.60;;;;;;;18.26;54.64;97846.53;4960546;28;20390;-75
2023/10/28 04:26:26;;;;;;;5.90;1.70;;;;;;;18.27;54.76;97858.75;4960504;28;20037;-75
2023/10/28 04:28:52;;;;;;;8.65;1.80;;;;;;;18.21;54.66;97870.06;4960386;28;20477;-73
2023/10/28 04:31:17;;;;;;;6.45;1.55;;;;;;;18.22;54.86;97871.72;4960152;28;20453;-75
2023/10/28 04:33:43;;;;;;;6.68;1.52;;;;;;;18.22;54.80;97869.88;4975972;28;20104;-75
2023/10/28 04:36:09;;;;;;;10.10;1.70;;;;;;;18.18;54.66;97871.25;4959953;28;20053;-74
2023/10/28 04:38:37;;;;;;;5.38;1.60;;;;;;;18.17;54.71;97872.28;4960438;28;20425;-75
2023/10/28 04:41:02;;;;;;;5.00;1.60;;;;;;;18.17;54.96;97877.56;4960040;28;20120;-74
2023/10/28 04:43:29;;;;;;;6.82;1.80;;;;;;;18.16;54.76;97885.66;4959194;28;20482;-77
2023/10/28 04:45:54;;;;;;;6.25;1.67;;;;;;;18.13;54.69;97889.47;4960104;28;20035;-74
2023/10/28 04:48:21;;;;;;;6.70;1.60;;;;;;;18.11;54.86;97886.22;4993567;28;20092;-75
2023/10/28 04:50:47;;;;;;;8.70;2.03;;;;;;;18.16;54.71;97898.88;4976036;28;20045;-74
2023/10/28 04:53:13;;;;;;;4.47;1.60;;;;;;;18.16;54.63;97896.22;4943905;28;20061;-74
2023/10/28 04:55:38;;;;;;;7.72;1.60;;;;;;;18.16;54.68;97890.94;4975418;28;20085;-75
2023/10/28 04:58:05;;;;;;;8.70;1.55;;;;;;;18.22;54.52;97903.41;4943389;28;20053;-74
2023/10/28 05:00:31;;;;;;;3.72;1.58;;;;;;;18.24;54.61;97902.19;4975234;28;20042;-74
2023/10/28 05:02:56;;;;;;;4.43;1.50;;;;;;;18.31;54.52;97912.03;4975868;28;20415;-74
2023/10/28 05:05:22;;;;;;;7.28;1.25;;;;;;;18.34;54.35;97915.09;4959233;28;20033;-74
2023/10/28 05:07:47;;;;;;;10.10;1.60;;;;;;;18.43;54.22;97916.63;4959262;28;20448;-78
2023/10/28 05:10:13;;;;;;;6.55;1.58;;;;;;;18.52;54.07;97922.63;4960022;28;20026;-85
2023/10/28 05:12:40;;;;;;;4.18;1.40;;;;;;;18.61;53.85;97929.44;4975693;28;20057;-75
2023/10/28 05:15:08;;;;;;;5.25;1.40;;;;;;;18.74;53.49;97925.28;4943544;28;20553;-78
2023/10/28 05:17:37;;;;;;;6.55;1.40;;;;;;;19.22;52.49;97928.13;4975573;28;20038;-75
2023/10/28 05:20:06;;;;;;;8.30;1.50;;;;;;;19.77;51.50;97944.22;4936175;28;20042;-77
2023/10/28 05:22:37;;;;;;;4.90;1.30;;;;;;;20.21;50.46;97944.81;4951587;28;20959;-77
2023/10/28 05:25:07;;;;;;;8.10;2.00;;;;;;;20.60;49.62;97961.84;4949647;28;20034;-76
2023/10/28 05:27:33;;;;;;;7.68;1.95;;;;;;;21.03;48.58;97969.50;4940411;28;20058;-79
2023/10/28 05:29:59;;;;;;;6.90;1.63;;;;;;;21.55;47.48;97967.03;4959108;28;20069;-77
2023/10/28 05:32:25;;;;;;;5.45;1.67;;;;;;;22.05;46.13;97964.69;4945130;28;20035;-85
2023/10/28 05:34:50;;;;;;;8.02;2.30;;;;;;;22.54;45.39;97969.63;4965138;28;20140;-85
2023/10/28 05:37:16;;;;;;;7.10;1.48;;;;;;;23.08;44.08;97978.13;4956238;28;20038;-73
2023/10/28 05:39:42;;;;;;;4.60;1.80;;;;;;;23.61;43.08;97982.16;4994389;28;20037;-73
2023/10/28 05:42:07;;;;;;;9.48;1.80;;;;;;;24.17;42.24;97993.72;4961741;28;20037;-72
2023/10/28 05:44:33;;;;;;;3.80;1.45;;;;;;;24.68;41.24;97992.47;4978322;28;20104;-72
2023/10/28 05:47:01;;;;;;;4.38;1.60;;;;;;;25.17;40.23;97996.91;4940588;28;20034;-74
2023/10/28 05:49:28;;;;;;;9.48;1.67;;;;;;;25.66;39.48;97994.06;4985056;28;20062;-76
2023/10/28 05:51:54;;;;;;;24.17;1.77;;;;;;;26.11;39.10;97988.94;4962171;28;20117;-76
2023/10/28 05:54:20;;;;;;;10.85;2.00;;;;;;;26.43;38.21;98003.75;4975777;28;20161;-71
2023/10/28 05:56:45;;;;;;;10.25;1.67;;;;;;;26.69;37.97;98003.22;4993804;28;20037;-70
2023/10/28 05:59:11;;;;;;;12.73;2.10;;;;;;;27.10;36.41;98005.78;4994991;28;20050;-72
2023/10/28 06:01:37;;;;;;;15.93;1.77;;;;;;;27.21;35.92;98006.75;4977770;28;20132;-68
2023/10/28 06:04:03;;;;;;;5.28;1.70;;;;;;;27.49;34.66;98003.22;4978029;28;20027;-68
2023/10/28 06:06:28;;;;;;;9.48;2.00;;;;;;;27.77;33.99;98009.53;4961451;28;20061;-71
2023/10/28 06:08:54;;;;;;;18.67;2.22;;;;;;;28.04;34.18;98003.47;4961400;28;20030;-69
2023/10/28 06:11:20;;;;;;;16.65;2.60;;;;;;;28.35;33.48;98001.97;4977421;28;20116;-69
2023/10/28 06:13:45;;;;;;;15.77;1.83;;;;;;;28.86;33.28;98009.78;4977591;28;20036;-69
2023/10/28 06:16:11;;;;;;;16.42;2.10;;;;;;;29.37;32.35;98006.78;5010065;28;20096;-69
2023/10/28 06:18:39;;;;;;;10.90;1.67;;;;;;;29.93;31.43;98014.44;4981209;28;20065;-71
2023/10/28 06:21:05;;;;;;;11.13;1.95;;;;;;;30.40;30.64;98010.09;4981104;28;20042;-69
2023/10/28 06:23:30;;;;;;;11.00;1.70;;;;;;;30.97;30.35;98006.47;4981307;28;20045;-69
2023/10/28 06:25:56;;;;;;;9.13;1.50;;;;;;;31.83;29.05;98008.59;4980361;28;20112;-70
2023/10/28 06:28:22;;;;;;;9.75;1.30;;;;;;;32.33;28.20;98009.53;4967916;28;20038;-71
2023/10/28 06:30:48;;;;;;;7.97;1.60;;;;;;;33.07;27.70;98009.69;4988192;28;20030;-69
2023/10/28 06:33:13;;;;;;;5.80;1.48;;;;;;;33.73;26.15;98010.22;4980981;28;20026;-68
2023/10/28 06:35:39;;;;;;;7.45;1.50;;;;;;;33.91;26.08;98021.44;4981286;28;20029;-70
2023/10/28 06:38:06;;;;;;;10.25;1.27;;;;;;;34.45;25.04;98011.31;4980830;28;20070;-72
2023/10/28 06:40:32;;;;;;;13.30;1.50;;;;;;;34.49;25.28;98018.59;4981158;28;20030;-71
2023/10/28 06:42:57;;;;;;;9.55;1.67;;;;;;;34.44;24.79;98015.91;4997152;28;20489;-68
2023/10/28 06:45:23;;;;;;;11.30;1.48;;;;;;;34.63;24.88;98010.50;5010760;28;20026;-72
2023/10/28 06:47:48;;;;;;;14.95;1.88;;;;;;;36.05;23.73;98024.75;4945494;28;20151;-77
2023/10/28 06:50:19;;;;;;;7.45;1.10;;;;;;;36.90;22.49;98027.09;4961668;28;20042;-80
2023/10/28 06:52:48;;;;;;;29.40;1.98;;;;;;;38.01;22.07;98034.66;4964037;28;20034;-80
2023/10/28 06:55:18;;;;;;;13.75;1.50;;;;;;;39.55;20.39;98034.69;4962540;28;20038;-76
2023/10/28 06:57:45;;;;;;;31.05;1.77;;;;;;;40.36;19.24;98026.63;4995801;28;20038;-82
2023/10/28 07:00:13;;;;;;;;;;;;;;;41.25;17.96;98035.78;4948158;28;20030;-88
2023/10/28 07:02:42;;;;;;;7.13;1.63;;;;;;;42.56;16.25;98051.50;4963723;28;19921;-83
2023/10/28 07:05:08;;;;;;;10.23;1.48;;;;;;;43.06;16.26;98054.13;4962198;28;20034;-84
2023/10/28 07:07:35;;;;;;;9.27;1.43;;;;;;;43.69;15.44;98051.50;4980647;28;20026;-79
2023/10/28 07:10:01;;;;;;;13.48;1.90;;;;;;;43.41;15.33;98050.78;4949708;28;20042;-84
2023/10/28 07:12:28;;;;;;;13.27;2.20;;;;;;;42.59;15.87;98055.47;4978227;28;20049;-82
2023/10/28 07:14:54;;;;;;;11.95;2.20;;;;;;;42.74;16.09;98073.97;4963511;28;20037;-82
2023/10/28 07:17:20;;;;;;;11.05;1.85;;;;;;;42.51;16.14;98065.44;4979212;28;20026;-84
2023/10/28 07:19:45;;;;;;;13.82;1.95;;;;;;;42.02;16.90;98065.41;4968573;28;20387;-84
2023/10/28 07:22:11;;;;;;;15.37;2.20;;;;;;;41.42;17.34;98068.50;4987066;28;20402;-83
2023/10/28 07:24:36;;;;;;;13.50;1.98;;;;;;;40.84;17.96;98063.63;4962496;28;20030;-83
2023/10/28 07:27:05;;;;;;;12.55;1.90;;;;;;;40.42;18.06;98073.72;4962488;28;20405;-83
2023/10/28 07:29:31;;;;;;;17.85;1.92;;;;;;;40.05;18.34;98065.22;4965412;28;20105;-83
2023/10/28 07:31:57;;;;;;;15.15;1.88;;;;;;;39.79;18.83;98068.84;4997355;28;20077;-84
2023/10/28 07:34:22;;;;;;;18.42;2.10;;;;;;;39.52;19.10;98069.97;4948367;28;20563;-82
2023/10/28 07:36:48;;;;;;;16.38;1.80;;;;;;;39.34;18.96;98071.94;4978023;28;20117;-82
2023/10/28 07:39:13;;;;;;;12.00;1.70;;;;;;;39.19;19.37;98068.59;4978997;28;20441;-84
2023/10/28 07:41:39;;;;;;;7.38;1.67;;;;;;;39.15;19.70;98072.28;4961841;28;20062;-83
2023/10/28 07:44:04;;;;;;;9.02;1.75;;;;;;;39.14;19.61;98067.94;4978271;28;20022;-84
2023/10/28 07:46:30;;;;;;;7.00;1.80;;;;;;;39.17;19.59;98072.78;4978001;28;20541;-87
2023/10/28 07:48:56;;;;;;;6.90;1.70;;;;;;;39.15;19.76;98073.09;4961666;28;20034;-83
2023/10/28 07:51:22;;;;;;;14.05;2.00;;;;;;;39.28;19.45;98079.50;4962131;28;20062;-83
2023/10/28 07:53:50;;;;;;;7.35;1.35;;;;;;;39.31;19.58;98089.78;4977779;28;20528;-84
2023/10/28 07:56:19;;;;;;;15.55;1.90;;;;;;;39.37;19.08;98085.75;4976761;28;20053;-83
2023/10/28 07:58:45;;;;;;;8.50;1.67;;;;;;;39.43;19.11;98080.94;4977767;28;20089;-83
2023/10/28 08:01:15;;;;;;;12.25;1.95;;;;;;;39.52;19.33;98072.72;4994616;28;20458;-83
2023/10/28 08:03:44;;;;;;;9.65;2.17;;;;;;;39.50;19.08;98083.16;4961487;28;20505;-81
2023/10/28 08:06:11;;;;;;;6.22;1.70;;;;;;;39.51;19.33;98082.06;4977883;28;20034;-82
2023/10/28 08:08:37;;;;;;;10.68;1.98;;;;;;;39.52;19.32;98081.75;4945134;28;20489;-84
2023/10/28 08:11:03;;;;;;;9.18;2.05;;;;;;;39.54;19.24;98082.22;4960711;28;20069;-84
2023/10/28 08:13:28;;;;;;;9.45;2.17;;;;;;;39.51;19.07;98088.31;4944850;28;20138;-84
2023/10/28 08:15:55;;;;;;;6.32;1.60;;;;;;;39.54;19.37;98081.44;4961529;28;20030;-87
2023/10/28 08:18:21;;;;;;;8.07;1.95;;;;;;;39.63;19.43;98084.91;4946050;28;20038;-85
2023/10/28 08:20:46;;;;;;;9.50;2.00;;;;;;;39.69;19.40;98085.56;4994878;28;20034;-84
2023/10/28 08:23:12;;;;;;;7.78;1.83;;;;;;;39.64;19.27;98086.53;4945012;28;20038;-83
2023/10/28 08:25:37;;;;;;;9.98;1.70;;;;;;;39.66;19.39;98087.00;4945365;28;20038;-83
2023/10/28 08:28:03;;;;;;;5.68;1.50;;;;;;;39.69;19.21;98097.28;4977082;28;20038;-84
2023/10/28 08:30:29;;;;;;;10.68;1.80;;;;;;;39.75;18.95;98087.78;4976891;28;20026;-85
2023/10/28 08:32:54;;;;;;;8.45;1.58;;;;;;;39.80;19.09;98100.47;4977550;28;20053;-85
2023/10/28 08:35:20;;;;;;;8.50;1.70;;;;;;;39.87;19.28;98098.06;4961467;28;20034;-84
2023/10/28 08:37:48;;;;;;;5.88;1.50;;;;;;;39.95;19.19;98093.69;4960604;28;20042;-83
2023/10/28 08:40:14;;;;;;;6.60;1.50;;;;;;;40.01;19.07;98097.88;4960863;28;20026;-87
2023/10/28 08:42:40;;;;;;;7.55;1.67;;;;;;;40.20;18.57;98096.66;4961136;28;20046;-82
2023/10/28 08:45:08;;;;;;;10.17;1.43;;;;;;;40.33;18.30;98095.63;4976926;28;20026;-84
2023/10/28 08:47:36;;;;;;;6.97;1.67;;;;;;;40.46;18.29;98091.09;4960719;28;20049;-83
2023/10/28 08:50:05;;;;;;;6.25;1.52;;;;;;;40.93;17.95;98103.81;4961090;28;20548;-84
2023/10/28 08:52:32;;;;;;;10.02;1.40;;;;;;;41.88;17.29;98112.34;4962484;28;20026;-85
2023/10/28 08:55:01;;;;;;;10.07;1.53;;;;;;;43.00;16.22;98108.47;4960162;28;20406;-83
2023/10/28 08:57:27;;;;;;;7.22;1.50;;;;;;;44.41;14.80;98108.28;4945493;28;20150;-84
2023/10/28 08:59:53;;;;;;;4.63;1.57;;;;;;;45.39;13.60;98116.72;4961096;28;20124;-84
2023/10/28 09:02:19;;;;;;;8.83;1.27;;;;;;;46.07;13.04;98114.41;4976598;28;20476;-83
2023/10/28 09:04:44;;;;;;;7.80;1.30;;;;;;;46.15;13.20;98116.13;4961586;28;20039;-85
2023/10/28 09:07:10;;;;;;;4.03;1.37;;;;;;;45.93;13.66;98112.19;4976864;28;20084;-83
2023/10/28 09:09:37;;;;;;;8.30;1.57;;;;;;;45.29;14.23;98103.50;4960802;28;20030;-85
2023/10/28 09:12:06;;;;;;;7.80;1.40;;;;;;;44.49;14.08;98101.00;4994307;28;20054;-83
2023/10/28 09:14:32;;;;;;;4.15;1.25;;;;;;;43.63;15.34;98107.88;4961531;28;20038;-83
2023/10/28 09:17:02;;;;;;;6.97;1.60;;;;;;;42.94;15.69;98105.16;4944892;28;20037;-86
2023/10/28 09:19:28;;;;;;;5.15;1.45;;;;;;;42.51;16.44;98103.84;4962339;28;20469;-82
2023/10/28 09:21:55;;;;;;;6.68;1.33;;;;;;;42.23;16.39;98107.25;4976658;28;20042;-82
2023/10/28 09:24:21;;;;;;;5.47;1.42;;;;;;;42.03;16.41;98108.13;4976545;28;20034;-84
2023/10/28 09:26:50;;;;;;;4.03;1.25;;;;;;;41.81;17.11;98103.88;4960888;28;20072;-83
2023/10/28 09:29:33;;;;;;;5.22;1.20;;;;;;;41.64;17.10;98104.84;4960454;28;20034;-83
2023/10/28 09:32:09;;;;;;;5.07;1.23;;;;;;;41.39;17.13;98097.34;4962840;28;20031;-84
2023/10/28 09:34:35;;;;;;;4.47;1.50;;;;;;;41.32;17.75;98101.78;4961845;28;20081;-84
2023/10/28 09:37:01;;;;;;;4.43;1.35;;;;;;;41.18;17.68;98096.53;4960562;28;20038;-80
2023/10/28 09:39:26;;;;;;;7.63;1.58;;;;;;;41.05;17.78;98087.47;4944313;28;20386;-83
2023/10/28 09:41:52;;;;;;;7.47;1.33;;;;;;;40.95;17.59;98087.91;4960253;28;20440;-82
2023/10/28 09:44:18;;;;;;;5.15;1.27;;;;;;;40.83;18.10;98088.59;4943481;28;20041;-80
2023/10/28 09:46:43;;;;;;;5.60;1.27;;;;;;;40.59;18.42;98081.81;4959549;28;20034;-82
2023/10/28 09:49:10;;;;;;;5.00;1.40;;;;;;;40.43;18.70;98081.59;4960100;28;20026;-81
2023/10/28 09:51:36;;;;;;;3.35;1.00;;;;;;;40.26;18.44;98070.75;4962712;28;20050;-83
2023/10/28 09:54:06;;;;;;;2.97;1.15;;;;;;;40.11;19.20;98063.91;4948514;28;20054;-82
2023/10/28 09:56:34;;;;;;;6.28;1.33;;;;;;;39.89;19.11;98048.53;4963473;28;20077;-82
2023/10/28 09:59:18;;;;;;;2.80;1.20;;;;;;;39.71;19.53;98062.28;4963536;28;20046;-81
2023/10/28 10:02:06;;;;;;;4.05;1.42;;;;;;;39.54;19.07;98068.56;4947808;28;20128;-80
2023/10/28 10:04:48;;;;;;;7.88;1.33;;;;;;;39.36;19.55;98059.59;4996500;28;20022;-81
2023/10/28 10:07:14;;;;;;;4.22;1.27;;;;;;;39.30;19.88;98063.63;4979917;28;20049;-80
2023/10/28 10:09:43;;;;;;;6.03;1.50;;;;;;;39.18;20.04;98069.72;4963173;28;20138;-82
2023/10/28 10:12:10;;;;;;;4.32;1.30;;;;;;;39.07;20.12;98062.97;4963200;28;20116;-82
2023/10/28 10:14:37;;;;;;;6.97;1.20;;;;;;;38.93;20.25;98059.59;4963241;28;20029;-81
2023/10/28 10:17:05;;;;;;;;;;;;;;;38.76;20.46;98065.84;4963176;28;20064;-82
2023/10/28 10:19:34;;;;;;;4.85;1.50;;;;;;;38.65;20.88;98059.88;4978860;28;19913;-81
2023/10/28 10:22:04;;;;;;;5.47;1.42;;;;;;;38.48;20.81;98061.44;4947880;28;20126;-79
2023/10/28 10:24:29;;;;;;;6.28;1.30;;;;;;;38.34;20.92;98063.50;4946681;28;20030;-81
2023/10/28 10:26:56;;;;;;;4.55;1.45;;;;;;;38.04;20.70;98062.41;4962960;28;20523;-80
2023/10/28 10:29:21;;;;;;;3.90;1.30;;;;;;;37.73;20.83;98055.06;4979219;28;20458;-80
2023/10/28 10:31:53;;;;;;;6.22;1.23;;;;;;;37.54;21.53;98053.31;4962600;28;20042;-80
2023/10/28 10:34:39;;;;;;;4.72;1.15;;;;;;;37.45;21.64;98052.47;4947832;28;20038;-81
2023/10/28 10:37:05;;;;;;;8.40;1.30;;;;;;;37.36;22.21;98052.41;4948413;28;20049;-81
2023/10/28 10:39:42;;;;;;;5.32;1.20;;;;;;;37.20;22.47;98051.94;4946468;28;20042;-80
2023/10/28 10:42:07;;;;;;;5.72;1.30;;;;;;;36.99;22.25;98046.22;4962499;28;20026;-81
2023/10/28 10:44:37;;;;;;;5.05;1.23;;;;;;;36.75;22.65;98046.47;4946580;28;20416;-82
2023/10/28 10:47:08;;;;;;;4.72;1.15;;;;;;;36.38;23.00;98042.88;4947137;28;20061;-81
2023/10/28 10:49:35;;;;;;;3.03;1.45;;;;;;;36.11;23.26;98047.19;4963552;28;20030;-79
2023/10/28 10:52:01;;;;;;;4.20;1.50;;;;;;;35.99;23.58;98033.31;4945352;28;20049;-80
2023/10/28 10:54:30;;;;;;;4.82;1.30;;;;;;;35.91;23.59;98044.88;4979041;28;20057;-79
2023/10/28 10:56:55;;;;;;;5.70;1.25;;;;;;;35.82;23.73;98031.19;4978437;28;20030;-80
2023/10/28 10:59:21;;;;;;;2.67;1.00;;;;;;;35.72;23.99;98032.16;4961631;28;20046;-80
2023/10/28 11:01:46;;;;;;;9.82;1.55;;;;;;;35.55;24.03;98034.63;4995468;28;20315;-80
2023/10/28 11:04:12;;;;;;;5.22;1.42;;;;;;;35.52;23.61;98036.06;4945944;28;20026;-79
2023/10/28 11:06:37;;;;;;;5.43;1.33;;;;;;;35.32;24.25;98039.91;4962663;28;20132;-80
2023/10/28 11:09:04;;;;;;;2.88;1.05;;;;;;;35.27;23.90;98029.16;4962609;28;20062;-80
2023/10/28 11:11:30;;;;;;;6.95;1.45;;;;;;;35.18;24.17;98028.19;4962525;28;20048;-80
2023/10/28 11:13:58;;;;;;;9.13;1.33;;;;;;;34.94;24.54;98027.16;4978080;28;20560;-82
2023/10/28 11:16:27;;;;;;;2.83;1.00;;;;;;;34.82;25.13;98021.38;4946607;28;20054;-82
2023/10/28 11:18:53;;;;;;;7.38;1.38;;;;;;;34.64;24.93;98014.06;4945881;28;20041;-80
2023/10/28 11:21:25;;;;;;;5.55;1.02;;;;;;;34.52;25.35;98020.72;4946108;28;20031;-80
2023/10/28 11:23:51;;;;;;;6.90;1.30;;;;;;;34.38;25.58;98026.03;4946861;28;20128;-81
2023/10/28 11:26:20;;;;;;;6.20;1.30;;;;;;;34.13;25.58;98023.59;4962588;28;20113;-81
2023/10/28 11:28:47;;;;;;;4.57;1.30;;;;;;;33.92;25.95;98015.69;4945980;28;20588;-83